createdAt,value
2022-10-17T00:04:27.574Z,97549.50
2022-10-17T00:09:31.079Z,97539.19
2022-10-17T00:14:34.570Z,97548.66
2022-10-17T00:19:37.818Z,97557.94
2022-10-17T00:24:40.984Z,97568.00
2022-10-17T00:29:48.828Z,97560.16
2022-10-17T00:34:52.927Z,97572.94
2022-10-17T00:39:56.844Z,97567.50
2022-10-17T00:45:03.019Z,97579.50
2022-10-17T00:50:08.053Z,97585.22
2022-10-17T00:55:16.916Z,97576.00
2022-10-17T01:00:20.927Z,97597.47
2022-10-17T01:05:24.470Z,97601.59
2022-10-17T01:10:51.251Z,97595.34
2022-10-17T01:16:14.973Z,97588.25
2022-10-17T01:21:41.979Z,97600.78
2022-10-17T01:27:13.291Z,97611.38
2022-10-17T01:32:27.442Z,97606.22
2022-10-17T01:43:09.519Z,97609.75
2022-10-17T01:48:18.497Z,97614.38
2022-10-17T01:54:09.043Z,97618.72
2022-10-17T01:59:29.362Z,97615.72
2022-10-17T02:04:34.950Z,97613.28
2022-10-17T02:09:39.217Z,97614.38
2022-10-17T02:15:00.503Z,97611.66
2022-10-17T02:20:12.962Z,97613.03
2022-10-17T02:25:29.155Z,97611.41
2022-10-17T02:30:48.388Z,97602.47
2022-10-17T02:35:56.760Z,97600.53
2022-10-17T02:41:02.066Z,97607.09
2022-10-17T02:46:07.360Z,97602.47
2022-10-17T02:51:31.601Z,97599.44
2022-10-17T02:56:41.631Z,97600.25
2022-10-17T03:01:46.668Z,97600.50
2022-10-17T03:06:50.788Z,97601.59
2022-10-17T03:11:55.774Z,97601.59
2022-10-17T03:16:59.921Z,97599.97
2022-10-17T03:22:04.252Z,97601.34
2022-10-17T03:27:11.507Z,97594.28
2022-10-17T03:32:15.668Z,97601.94
2022-10-17T03:37:19.079Z,97604.13
2022-10-17T03:42:23.451Z,97600.59
2022-10-17T03:47:28.624Z,97602.50
2022-10-17T03:52:33.495Z,97597.66
2022-10-17T03:57:41.110Z,97605.22
2022-10-17T04:02:47.371Z,97603.84
2022-10-17T04:07:55.299Z,97606.78
2022-10-17T04:13:10.918Z,97614.09
2022-10-17T04:18:14.577Z,97615.94
2022-10-17T04:23:18.244Z,97619.69
2022-10-17T04:28:22.717Z,97618.53
2022-10-17T04:33:26.648Z,97624.44
2022-10-17T04:38:33.788Z,97627.09
2022-10-17T04:43:39.206Z,97635.72
2022-10-17T04:48:43.227Z,97638.09
2022-10-17T04:53:47.345Z,97641.00
2022-10-17T04:58:51.332Z,97645.78
2022-10-17T05:03:55.631Z,97651.13
2022-10-17T05:08:59.076Z,97662.91
2022-10-17T05:14:03.607Z,97660.94
2022-10-17T05:19:08.703Z,97669.50
2022-10-17T05:24:18.691Z,97663.31
2022-10-17T05:29:22.309Z,97675.97
2022-10-17T05:34:31.088Z,97677.59
2022-10-17T05:39:34.614Z,97684.06
2022-10-17T05:44:41.911Z,97680.13
2022-10-17T05:49:51.247Z,97692.00
2022-10-17T05:55:01.546Z,97699.72
2022-10-17T06:00:06.496Z,97688.53
2022-10-17T06:05:20.102Z,97688.63
2022-10-17T06:10:24.059Z,97695.81
2022-10-17T06:15:27.522Z,97696.53
2022-10-17T06:20:37.171Z,97690.66
2022-10-17T06:25:41.146Z,97692.88
2022-10-17T06:30:44.705Z,97687.13
2022-10-17T06:35:55.418Z,97694.69
2022-10-17T06:41:09.801Z,97706.63
2022-10-17T06:46:25.108Z,97700.56
2022-10-17T06:51:36.641Z,97713.72
2022-10-17T06:56:43.189Z,97716.16
2022-10-17T07:02:07.249Z,97712.78
2022-10-17T07:07:12.376Z,97705.53
2022-10-17T07:12:18.320Z,97705.31
2022-10-17T07:17:23.587Z,97706.06
2022-10-17T07:22:27.108Z,97702.88
2022-10-17T07:27:33.947Z,97706.44
2022-10-17T07:32:48.673Z,97700.34
2022-10-17T07:37:55.568Z,97714.41
2022-10-17T07:43:03.038Z,97706.50
2022-10-17T07:48:07.439Z,97718.66
2022-10-17T07:53:12.688Z,97713.47
2022-10-17T07:58:18.738Z,97720.13
2022-10-17T08:03:22.461Z,97722.91
2022-10-17T08:08:26.625Z,97728.06
2022-10-17T08:13:29.901Z,97714.38
2022-10-17T08:18:33.123Z,97722.50
2022-10-17T08:23:37.362Z,97718.53
2022-10-17T08:28:41.275Z,97723.53
2022-10-17T08:33:45.686Z,97729.00
2022-10-17T08:38:52.872Z,97737.69
2022-10-17T08:43:59.323Z,97736.56
2022-10-17T08:49:12.110Z,97729.78
2022-10-17T08:54:22.546Z,97727.56
2022-10-17T08:59:30.872Z,97720.84
2022-10-17T09:04:55.512Z,97729.41
2022-10-17T09:10:29.682Z,97731.34
2022-10-17T09:15:54.216Z,97730.53
2022-10-17T09:21:25.446Z,97735.22
2022-10-17T09:26:29.466Z,97728.44
2022-10-17T09:31:40.791Z,97724.91
2022-10-17T09:36:44.241Z,97731.72
2022-10-17T09:41:51.924Z,97732.16
2022-10-17T09:46:55.102Z,97718.34
2022-10-17T09:52:00.387Z,97720.44
2022-10-17T09:57:08.838Z,97713.22
2022-10-17T10:02:22.333Z,97720.81
2022-10-17T10:07:30.498Z,97731.13
2022-10-17T10:12:38.264Z,97716.38
2022-10-17T10:17:42.952Z,97713.47
2022-10-17T10:23:05.340Z,97724.19
2022-10-17T10:28:11.864Z,97727.34
2022-10-17T10:33:15.812Z,97739.28
2022-10-17T10:38:21.745Z,97729.91
2022-10-17T10:43:35.668Z,97731.81
2022-10-17T10:49:00.220Z,97722.22
2022-10-17T10:54:30.042Z,97715.25
2022-10-17T10:59:56.305Z,97718.38
2022-10-17T11:05:11.781Z,97720.91
2022-10-17T11:10:22.332Z,97719.19
2022-10-17T11:15:35.165Z,97723.03
2022-10-17T11:20:50.641Z,97725.56
2022-10-17T11:25:57.219Z,97725.25
2022-10-17T11:31:16.182Z,97724.16
2022-10-17T11:36:25.849Z,97734.56
2022-10-17T11:41:39.948Z,97731.03
2022-10-17T11:46:46.657Z,97728.81
2022-10-17T11:52:02.250Z,97736.41
2022-10-17T11:57:38.482Z,97726.38
2022-10-17T12:03:07.887Z,97732.34
2022-10-17T12:08:25.261Z,97735.06
2022-10-17T12:13:33.743Z,97729.44
2022-10-17T12:18:37.047Z,97737.00
2022-10-17T12:23:40.243Z,97740.63
2022-10-17T12:28:45.847Z,97739.41
2022-10-17T12:33:57.672Z,97744.56
2022-10-17T12:39:04.340Z,97743.25
2022-10-17T12:44:14.077Z,97752.06
2022-10-17T12:49:39.081Z,97755.59
2022-10-17T12:55:12.681Z,97764.78
2022-10-17T13:00:19.726Z,97754.81
2022-10-17T13:05:31.949Z,97761.06
2022-10-17T13:10:43.623Z,97760.13
2022-10-17T13:15:54.845Z,97757.63
2022-10-17T13:21:07.620Z,97761.75
2022-10-17T13:26:17.053Z,97752.25
2022-10-17T13:31:35.807Z,97762.13
2022-10-17T13:36:39.393Z,97767.16
2022-10-17T13:41:43.177Z,97769.47
2022-10-17T13:46:47.449Z,97774.03
2022-10-17T13:51:52.964Z,97779.00
2022-10-17T13:56:57.925Z,97777.44
2022-10-17T14:02:02.255Z,97778.44
2022-10-17T14:07:06.883Z,97776.38
2022-10-17T14:12:12.081Z,97775.13
2022-10-17T14:17:29.488Z,97776.31
2022-10-17T14:22:36.468Z,97783.25
2022-10-17T14:28:01.090Z,97782.75
2022-10-17T14:33:09.276Z,97785.59
2022-10-17T14:38:13.731Z,97782.69
2022-10-17T14:43:22.725Z,97782.22
2022-10-17T14:48:28.742Z,97774.78
2022-10-17T14:53:32.111Z,97771.97
2022-10-17T14:58:35.525Z,97768.84
2022-10-17T15:03:38.655Z,97776.31
2022-10-17T15:13:50.848Z,97781.09
2022-10-17T15:18:55.372Z,97791.47
2022-10-17T15:23:59.408Z,97792.31
2022-10-17T15:29:02.677Z,97800.78
2022-10-17T15:34:05.826Z,97803.25
2022-10-17T15:39:10.616Z,97809.00
2022-10-17T15:44:14.569Z,97809.56
2022-10-17T15:49:18.949Z,97807.97
2022-10-17T15:54:23.047Z,97810.47
2022-10-17T15:59:32.058Z,97822.75
2022-10-17T16:04:35.439Z,97821.41
2022-10-17T16:09:39.420Z,97827.69
2022-10-17T16:14:43.953Z,97843.22
2022-10-17T16:19:48.050Z,97852.47
2022-10-17T16:24:51.289Z,97864.16
2022-10-17T16:29:54.429Z,97877.25
2022-10-17T16:34:58.227Z,97878.28
2022-10-17T16:40:02.608Z,97871.16
2022-10-17T16:45:06.672Z,97878.19
2022-10-17T16:50:10.578Z,97876.28
2022-10-17T16:55:13.953Z,97885.50
2022-10-17T17:00:17.661Z,97878.34
2022-10-17T17:05:20.863Z,97892.44
2022-10-17T17:10:24.276Z,97893.22
2022-10-17T17:15:27.878Z,97890.75
2022-10-17T17:20:32.638Z,97891.78
2022-10-17T17:25:37.192Z,97886.88
2022-10-17T17:30:41.176Z,97883.34
2022-10-17T17:35:44.988Z,97888.53
2022-10-17T17:40:50.743Z,97902.16
2022-10-17T17:45:55.184Z,97897.81
2022-10-17T17:51:04.348Z,97907.03
2022-10-17T17:56:13.583Z,97897.81
2022-10-17T18:01:22.256Z,97901.09
2022-10-17T18:06:28.819Z,97895.72
2022-10-17T18:11:32.488Z,97898.16
2022-10-17T18:16:37.140Z,97906.03
2022-10-17T18:21:47.051Z,97911.22
2022-10-17T18:26:50.410Z,97913.44
2022-10-17T18:31:53.696Z,97917.59
2022-10-17T18:36:57.795Z,97913.00
2022-10-17T18:42:01.112Z,97911.63
2022-10-17T18:47:04.703Z,97912.22
2022-10-17T18:52:08.069Z,97913.91
2022-10-17T18:57:11.359Z,97914.50
2022-10-17T19:02:17.124Z,97908.81
2022-10-17T19:07:23.443Z,97911.34
2022-10-17T19:12:26.797Z,97905.91
2022-10-17T19:17:30.162Z,97902.94
2022-10-17T19:22:34.161Z,97904.03
2022-10-17T19:27:38.182Z,97915.72
2022-10-17T19:32:41.657Z,97908.97
2022-10-17T19:37:46.402Z,97906.88
2022-10-17T19:42:50.051Z,97906.84
2022-10-17T19:47:53.691Z,97911.22
2022-10-17T19:53:00.608Z,97911.78
2022-10-17T19:58:10.063Z,97914.78
2022-10-17T20:03:13.552Z,97908.25
2022-10-17T20:08:18.115Z,97896.84
2022-10-17T20:13:21.573Z,97913.16
2022-10-17T20:18:32.636Z,97910.75
2022-10-17T20:23:36.911Z,97906.69
2022-10-17T20:28:41.567Z,97895.63
2022-10-17T20:33:51.144Z,97899.38
2022-10-17T20:38:59.226Z,97902.88
2022-10-17T20:44:03.069Z,97896.34
2022-10-17T20:49:07.856Z,97898.81
2022-10-17T20:54:12.019Z,97891.22
2022-10-17T20:59:17.977Z,97884.97
2022-10-17T21:04:44.706Z,97895.03
2022-10-17T21:09:44.329Z,97889.28
2022-10-17T21:14:52.995Z,97899.06
2022-10-17T21:19:56.543Z,97893.13
2022-10-17T21:25:03.897Z,97891.78
2022-10-17T21:35:16.566Z,97882.53
2022-10-17T21:40:20.267Z,97882.28
2022-10-17T21:45:25.771Z,97876.59
2022-10-17T21:50:35.776Z,97875.00
2022-10-17T21:55:40.094Z,97875.28
2022-10-17T22:00:43.575Z,97868.19
2022-10-17T22:05:47.602Z,97861.16
2022-10-17T22:10:50.955Z,97868.78
2022-10-17T22:16:00.180Z,97873.13
2022-10-17T22:21:15.288Z,97867.44
2022-10-17T22:26:18.506Z,97872.31
2022-10-17T22:31:22.355Z,97860.63
2022-10-17T22:36:32.134Z,97858.50
2022-10-17T22:41:35.591Z,97865.00
2022-10-17T22:46:38.971Z,97866.06
2022-10-17T22:51:44.543Z,97866.34
2022-10-17T22:56:52.374Z,97871.47
2022-10-17T23:01:57.494Z,97869.00
2022-10-17T23:07:08.851Z,97865.47
2022-10-17T23:12:13.867Z,97872.03
2022-10-17T23:17:18.106Z,97861.44
2022-10-17T23:22:21.563Z,97863.66
2022-10-17T23:27:25.123Z,97863.94
2022-10-17T23:32:32.465Z,97860.97
2022-10-17T23:37:36.553Z,97859.63
2022-10-17T23:42:41.286Z,97860.44
2022-10-17T23:47:44.900Z,97856.09
2022-10-17T23:52:49.925Z,97856.09
2022-10-17T23:57:53.253Z,97859.84
